createdAt,value
2022-08-30T00:00:46.525Z,70.46
2022-08-30T00:01:46.531Z,69.96
2022-08-30T00:02:46.657Z,69.85
2022-08-30T00:03:46.694Z,69.76
2022-08-30T00:04:46.522Z,70.16
2022-08-30T00:05:46.522Z,70.06
2022-08-30T00:06:46.521Z,69.96
2022-08-30T00:07:46.520Z,69.85
2022-08-30T00:08:46.520Z,69.56
2022-08-30T00:09:46.529Z,69.65
2022-08-30T00:10:46.522Z,70.26
2022-08-30T00:11:46.518Z,70.36
2022-08-30T00:12:46.531Z,70.36
2022-08-30T00:13:46.521Z,70.26
2022-08-30T00:14:46.517Z,70.56
2022-08-30T00:15:46.615Z,71.36
2022-08-30T00:16:46.515Z,70.46
2022-08-30T00:17:46.521Z,70.66
2022-08-30T00:18:46.513Z,70.76
2022-08-30T00:19:46.538Z,70.96
2022-08-30T00:20:46.517Z,70.86
2022-08-30T00:21:46.515Z,71.06
2022-08-30T00:22:46.517Z,70.96
2022-08-30T00:23:46.515Z,70.66
2022-08-30T00:24:46.514Z,70.59
2022-08-30T00:25:46.520Z,70.86
2022-08-30T00:26:46.511Z,71.77
2022-08-30T00:27:46.514Z,71.56
2022-08-30T00:28:46.530Z,71.26
2022-08-30T00:29:46.512Z,71.70
2022-08-30T00:30:46.582Z,71.16
2022-08-30T00:31:46.510Z,71.97
2022-08-30T00:32:46.514Z,71.06
2022-08-30T00:33:46.513Z,72.10
2022-08-30T00:34:46.509Z,71.30
2022-08-30T00:35:46.509Z,71.16
2022-08-30T00:36:46.508Z,71.67
2022-08-30T00:37:46.509Z,71.47
2022-08-30T00:38:46.508Z,71.77
2022-08-30T00:39:46.504Z,71.77
2022-08-30T00:40:46.533Z,71.40
2022-08-30T00:41:46.506Z,71.90
2022-08-30T00:42:50.734Z,72.17
2022-08-30T00:43:46.505Z,72.17
2022-08-30T00:44:46.505Z,72.17
2022-08-30T00:45:47.034Z,72.71
2022-08-30T00:46:46.507Z,72.77
2022-08-30T00:47:46.505Z,72.77
2022-08-30T00:48:46.504Z,72.61
2022-08-30T00:49:46.508Z,72.67
2022-08-30T00:50:46.500Z,72.67
2022-08-30T00:51:46.501Z,72.81
2022-08-30T00:52:46.501Z,72.67
2022-08-30T00:53:46.501Z,72.77
2022-08-30T00:54:46.499Z,72.77
2022-08-30T00:55:46.498Z,72.87
2022-08-30T00:56:46.501Z,72.81
2022-08-30T00:57:46.497Z,72.77
2022-08-30T00:58:46.498Z,71.80
2022-08-30T00:59:46.496Z,71.67
2022-08-30T01:00:46.499Z,72.47
2022-08-30T01:01:46.551Z,72.77
2022-08-30T01:02:46.544Z,72.97
2022-08-30T01:03:46.494Z,72.81
2022-08-30T01:04:46.495Z,72.77
2022-08-30T01:05:46.506Z,72.61
2022-08-30T01:06:46.492Z,72.81
2022-08-30T01:07:46.492Z,72.77
2022-08-30T01:08:46.496Z,72.91
2022-08-30T01:09:46.493Z,72.57
2022-08-30T01:10:46.495Z,72.91
2022-08-30T01:11:46.490Z,72.61
2022-08-30T01:12:46.495Z,73.61
2022-08-30T01:13:46.488Z,72.91
2022-08-30T01:14:46.490Z,72.50
2022-08-30T01:15:46.580Z,72.81
2022-08-30T01:16:46.489Z,72.30
2022-08-30T01:17:46.488Z,73.81
2022-08-30T01:18:46.489Z,73.71
2022-08-30T01:19:46.485Z,73.61
2022-08-30T01:20:46.490Z,73.61
2022-08-30T01:21:46.491Z,73.81
2022-08-30T01:22:46.490Z,73.91
2022-08-30T01:23:46.487Z,73.81
2022-08-30T01:24:46.486Z,74.32
2022-08-30T01:25:46.486Z,73.91
2022-08-30T01:26:46.486Z,73.41
2022-08-30T01:27:46.485Z,73.41
2022-08-30T01:28:46.491Z,73.41
2022-08-30T01:29:46.483Z,73.41
2022-08-30T01:30:46.603Z,73.81
2022-08-30T01:31:46.486Z,73.71
2022-08-30T01:32:46.494Z,73.91
2022-08-30T01:33:46.485Z,73.71
2022-08-30T01:34:46.482Z,73.88
2022-08-30T01:35:46.481Z,72.61
2022-08-30T01:36:46.484Z,72.91
2022-08-30T01:37:46.480Z,72.50
2022-08-30T01:38:46.477Z,73.81
2022-08-30T01:39:46.477Z,72.61
2022-08-30T01:40:46.479Z,73.21
2022-08-30T01:41:46.477Z,73.81
2022-08-30T01:42:46.479Z,73.75
2022-08-30T01:43:46.480Z,74.45
2022-08-30T01:44:46.477Z,74.75
2022-08-30T01:45:46.696Z,73.58
2022-08-30T01:46:46.482Z,73.98
2022-08-30T01:47:46.476Z,74.69
2022-08-30T01:48:52.991Z,74.69
2022-08-30T01:49:46.474Z,75.09
2022-08-30T01:50:46.486Z,75.09
2022-08-30T01:51:46.471Z,74.58
2022-08-30T01:52:46.471Z,74.75
2022-08-30T01:53:46.473Z,75.15
2022-08-30T01:54:46.471Z,75.26
2022-08-30T01:55:46.469Z,75.09
2022-08-30T01:56:46.472Z,75.15
2022-08-30T01:57:46.472Z,74.55
2022-08-30T01:58:46.478Z,75.26
2022-08-30T01:59:46.469Z,74.79
2022-08-30T02:00:46.471Z,74.65
2022-08-30T02:01:46.532Z,75.09
2022-08-30T02:02:46.468Z,74.55
2022-08-30T02:03:46.543Z,75.15
2022-08-30T02:04:46.471Z,74.89
2022-08-30T02:05:46.466Z,74.95
2022-08-30T02:06:46.466Z,75.19
2022-08-30T02:07:46.465Z,74.25
2022-08-30T02:08:46.465Z,74.99
2022-08-30T02:09:46.467Z,75.09
2022-08-30T02:10:46.463Z,74.58
2022-08-30T02:11:46.461Z,74.58
2022-08-30T02:12:46.461Z,75.09
2022-08-30T02:13:46.461Z,75.15
2022-08-30T02:14:46.464Z,75.70
2022-08-30T02:15:46.457Z,74.79
2022-08-30T02:16:46.483Z,74.75
2022-08-30T02:17:46.456Z,75.39
2022-08-30T02:18:46.458Z,75.56
2022-08-30T02:19:46.454Z,75.56
2022-08-30T02:20:46.456Z,75.49
2022-08-30T02:21:46.456Z,75.39
2022-08-30T02:22:49.338Z,75.79
2022-08-30T02:23:46.451Z,76.20
2022-08-30T02:24:46.466Z,76.50
2022-08-30T02:25:46.453Z,76.70
2022-08-30T02:26:46.453Z,76.50
2022-08-30T02:27:46.450Z,75.70
2022-08-30T02:28:49.673Z,75.70
2022-08-30T02:29:46.450Z,76.03
2022-08-30T02:30:46.500Z,76.43
2022-08-30T02:31:46.447Z,75.73
2022-08-30T02:32:46.449Z,75.83
2022-08-30T02:33:46.447Z,76.34
2022-08-30T02:34:46.446Z,75.43
2022-08-30T02:35:46.445Z,75.33
2022-08-30T02:36:46.445Z,76.40
2022-08-30T02:37:46.446Z,76.30
2022-08-30T02:38:46.445Z,75.70
2022-08-30T02:39:46.442Z,75.73
2022-08-30T02:40:46.541Z,75.90
2022-08-30T02:41:46.444Z,75.90
2022-08-30T02:42:46.441Z,76.50
2022-08-30T02:43:46.440Z,76.30
2022-08-30T02:44:46.444Z,76.20
2022-08-30T02:45:46.480Z,77.11
2022-08-30T02:46:46.439Z,76.10
2022-08-30T02:47:47.223Z,76.50
2022-08-30T02:48:46.439Z,75.43
2022-08-30T02:49:46.439Z,75.43
2022-08-30T02:50:46.436Z,76.54
2022-08-30T02:51:46.447Z,76.84
2022-08-30T02:52:48.403Z,76.80
2022-08-30T02:53:46.435Z,76.94
2022-08-30T02:54:46.434Z,77.04
2022-08-30T02:55:46.434Z,76.90
2022-08-30T02:56:46.436Z,76.80
2022-08-30T02:57:46.429Z,76.50
2022-08-30T02:58:46.433Z,76.70
2022-08-30T02:59:46.430Z,76.50
2022-08-30T03:00:46.479Z,76.30
2022-08-30T03:01:46.512Z,76.30
2022-08-30T03:02:46.425Z,75.99
2022-08-30T03:03:46.498Z,76.90
2022-08-30T03:04:46.426Z,76.60
2022-08-30T03:05:46.425Z,76.70
2022-08-30T03:06:46.427Z,76.90
2022-08-30T03:07:46.423Z,76.34
2022-08-30T03:08:46.427Z,76.23
2022-08-30T03:09:46.429Z,76.54
2022-08-30T03:10:46.424Z,77.14
2022-08-30T03:11:46.421Z,77.34
2022-08-30T03:12:46.421Z,76.94
2022-08-30T03:13:46.420Z,75.93
2022-08-30T03:14:46.426Z,77.08
2022-08-30T03:15:46.422Z,77.55
2022-08-30T03:16:46.522Z,77.48
2022-08-30T03:17:46.415Z,77.88
2022-08-30T03:18:46.414Z,77.98
2022-08-30T03:19:46.413Z,77.78
2022-08-30T03:20:54.205Z,78.19
2022-08-30T03:21:46.414Z,77.58
2022-08-30T03:22:46.413Z,78.28
2022-08-30T03:23:46.414Z,78.69
2022-08-30T03:24:46.417Z,78.89
2022-08-30T03:25:46.409Z,78.72
2022-08-30T03:26:46.785Z,78.99
2022-08-30T03:27:46.407Z,78.89
2022-08-30T03:28:46.409Z,78.39
2022-08-30T03:29:46.405Z,78.39
2022-08-30T03:30:46.406Z,78.49
2022-08-30T03:31:52.851Z,78.72
2022-08-30T03:32:46.407Z,78.39
2022-08-30T03:33:46.403Z,79.09
2022-08-30T03:34:46.408Z,78.72
2022-08-30T03:35:46.427Z,78.42
2022-08-30T03:36:46.403Z,78.72
2022-08-30T03:37:46.410Z,78.42
2022-08-30T03:38:46.401Z,78.83
2022-08-30T03:39:46.396Z,78.42
2022-08-30T03:40:46.484Z,78.52
2022-08-30T03:41:46.395Z,78.72
2022-08-30T03:42:46.398Z,78.52
2022-08-30T03:43:46.392Z,78.52
2022-08-30T03:44:46.394Z,78.63
2022-08-30T03:45:46.779Z,78.63
2022-08-30T03:46:46.395Z,78.63
2022-08-30T03:47:46.392Z,78.83
2022-08-30T03:48:46.395Z,78.52
2022-08-30T03:49:46.389Z,78.12
2022-08-30T03:50:46.389Z,79.03
2022-08-30T03:51:46.387Z,79.13
2022-08-30T03:52:46.388Z,79.13
2022-08-30T03:53:46.385Z,78.72
2022-08-30T03:54:46.382Z,79.13
2022-08-30T03:55:46.382Z,78.83
2022-08-30T03:56:46.384Z,78.83
2022-08-30T03:57:46.435Z,78.92
2022-08-30T03:58:46.458Z,78.92
2022-08-30T03:59:46.395Z,79.13
2022-08-30T04:00:46.442Z,79.13
2022-08-30T04:01:46.440Z,79.03
2022-08-30T04:02:46.380Z,79.23
2022-08-30T04:03:46.376Z,79.53
2022-08-30T04:04:46.380Z,79.63
2022-08-30T04:05:46.379Z,79.83
2022-08-30T04:06:46.377Z,79.36
2022-08-30T04:07:46.373Z,79.13
2022-08-30T04:08:46.379Z,79.63
2022-08-30T04:09:46.372Z,79.53
2022-08-30T04:10:46.373Z,79.87
2022-08-30T04:11:46.368Z,79.67
2022-08-30T04:12:49.720Z,79.36
2022-08-30T04:13:46.365Z,79.36
2022-08-30T04:14:46.365Z,79.67
2022-08-30T04:15:46.365Z,79.36
2022-08-30T04:16:46.428Z,79.47
2022-08-30T04:17:46.364Z,79.47
2022-08-30T04:18:46.363Z,79.77
2022-08-30T04:19:46.362Z,79.67
2022-08-30T04:20:46.361Z,79.87
2022-08-30T04:21:46.358Z,80.47
2022-08-30T04:22:46.356Z,79.97
2022-08-30T04:23:46.356Z,80.11
2022-08-30T04:24:46.356Z,80.01
2022-08-30T04:25:46.354Z,80.27
2022-08-30T04:26:46.359Z,80.47
2022-08-30T04:27:46.356Z,80.18
2022-08-30T04:28:46.352Z,80.78
2022-08-30T04:29:46.353Z,80.18
2022-08-30T04:30:46.351Z,80.27
2022-08-30T04:31:46.411Z,80.18
2022-08-30T04:32:46.348Z,79.93
2022-08-30T04:33:46.347Z,79.43
2022-08-30T04:34:46.352Z,79.73
2022-08-30T04:35:46.342Z,79.43
2022-08-30T04:36:48.202Z,79.03
2022-08-30T04:37:46.344Z,78.52
2022-08-30T04:38:46.342Z,78.92
2022-08-30T04:39:46.341Z,78.92
2022-08-30T04:40:46.414Z,79.13
2022-08-30T04:41:46.392Z,78.92
2022-08-30T04:42:46.355Z,78.52
2022-08-30T04:43:46.340Z,78.63
2022-08-30T04:44:46.342Z,78.42
2022-08-30T04:45:46.390Z,78.52
2022-08-30T04:46:46.342Z,78.63
2022-08-30T04:47:46.336Z,79.13
2022-08-30T04:48:46.330Z,78.83
2022-08-30T04:49:46.331Z,78.99
2022-08-30T04:50:46.334Z,79.13
2022-08-30T04:51:46.333Z,79.13
2022-08-30T04:52:46.326Z,79.23
2022-08-30T04:53:46.329Z,79.19
2022-08-30T04:54:46.326Z,79.13
2022-08-30T04:55:46.323Z,78.59
2022-08-30T04:56:46.322Z,78.42
2022-08-30T04:57:46.333Z,78.52
2022-08-30T04:58:46.323Z,78.28
2022-08-30T04:59:46.320Z,78.69
2022-08-30T05:00:46.361Z,78.69
2022-08-30T05:01:46.338Z,78.63
2022-08-30T05:02:46.466Z,78.49
2022-08-30T05:03:46.320Z,78.49
2022-08-30T05:04:46.321Z,78.99
2022-08-30T05:05:46.320Z,78.59
2022-08-30T05:06:46.314Z,78.39
2022-08-30T05:07:46.321Z,77.98
2022-08-30T05:08:46.870Z,78.19
2022-08-30T05:09:46.311Z,78.69
2022-08-30T05:10:46.311Z,78.49
2022-08-30T05:11:46.322Z,78.32
2022-08-30T05:12:46.325Z,77.82
2022-08-30T05:13:46.312Z,78.52
2022-08-30T05:14:46.319Z,78.22
2022-08-30T05:15:46.311Z,78.12
2022-08-30T05:16:46.409Z,78.28
2022-08-30T05:17:46.309Z,78.42
2022-08-30T05:18:46.305Z,78.12
2022-08-30T05:19:46.303Z,78.32
2022-08-30T05:20:46.308Z,78.83
2022-08-30T05:21:46.304Z,78.83
2022-08-30T05:22:46.317Z,78.92
2022-08-30T05:23:46.300Z,78.69
2022-08-30T05:24:46.294Z,78.79
2022-08-30T05:25:46.298Z,78.99
2022-08-30T05:27:46.297Z,78.99
2022-08-30T05:28:46.297Z,78.28
2022-08-30T05:29:46.295Z,77.78
2022-08-30T05:30:46.290Z,78.08
2022-08-30T05:31:46.388Z,78.28
2022-08-30T05:32:46.286Z,78.79
2022-08-30T05:33:46.293Z,79.09
2022-08-30T05:34:46.289Z,78.89
2022-08-30T05:35:46.289Z,78.89
2022-08-30T05:36:46.287Z,79.09
2022-08-30T05:37:46.287Z,79.29
2022-08-30T05:38:46.279Z,78.89
2022-08-30T05:39:51.469Z,78.99
2022-08-30T05:40:46.369Z,78.79
2022-08-30T05:41:46.279Z,78.79
2022-08-30T05:42:46.283Z,78.89
2022-08-30T05:43:46.284Z,79.19
2022-08-30T05:44:46.279Z,79.09
2022-08-30T05:45:46.276Z,78.89
2022-08-30T05:46:46.354Z,78.79
2022-08-30T05:47:46.277Z,78.99
2022-08-30T05:48:46.272Z,78.89
2022-08-30T05:49:46.279Z,78.96
2022-08-30T05:50:46.272Z,79.16
2022-08-30T05:51:46.270Z,78.85
2022-08-30T05:52:46.268Z,79.09
2022-08-30T05:53:46.267Z,79.09
2022-08-30T05:54:46.265Z,79.25
2022-08-30T05:55:46.266Z,79.25
2022-08-30T05:56:46.263Z,79.25
2022-08-30T05:57:46.272Z,79.16
2022-08-30T05:58:46.261Z,78.25
2022-08-30T05:59:46.262Z,78.35
2022-08-30T06:00:46.259Z,78.65
2022-08-30T06:01:46.323Z,78.96
2022-08-30T06:02:46.327Z,78.65
2022-08-30T06:03:46.260Z,78.85
2022-08-30T06:04:46.264Z,78.85
2022-08-30T06:06:46.258Z,78.96
2022-08-30T06:07:46.254Z,79.05
2022-08-30T06:08:46.258Z,79.25
2022-08-30T06:09:46.254Z,78.96
2022-08-30T06:10:46.249Z,78.96
2022-08-30T06:11:46.248Z,78.85
2022-08-30T06:12:46.249Z,78.96
2022-08-30T06:13:46.249Z,78.96
2022-08-30T06:14:46.246Z,79.05
2022-08-30T06:15:46.285Z,79.05
2022-08-30T06:16:46.246Z,78.85
2022-08-30T06:17:46.244Z,78.96
2022-08-30T06:18:46.245Z,79.05
2022-08-30T06:19:46.248Z,78.75
2022-08-30T06:20:46.240Z,78.96
2022-08-30T06:21:46.252Z,78.96
2022-08-30T06:22:46.240Z,78.75
2022-08-30T06:23:46.243Z,78.71
2022-08-30T06:25:00.236Z,78.81
2022-08-30T06:25:46.239Z,79.22
2022-08-30T06:26:46.239Z,79.32
2022-08-30T06:27:46.244Z,79.25
2022-08-30T06:28:46.236Z,79.25
2022-08-30T06:29:46.243Z,79.32
2022-08-30T06:30:46.233Z,79.32
2022-08-30T06:31:46.292Z,78.31
2022-08-30T06:32:46.231Z,78.81
2022-08-30T06:33:46.234Z,78.81
2022-08-30T06:34:46.237Z,78.91
2022-08-30T06:35:58.160Z,79.11
2022-08-30T06:36:46.255Z,79.02
2022-08-30T06:37:46.235Z,78.61
2022-08-30T06:38:46.231Z,78.41
2022-08-30T06:39:46.225Z,78.11
2022-08-30T06:40:46.291Z,78.11
2022-08-30T06:41:46.225Z,78.51
2022-08-30T06:42:46.222Z,78.27
2022-08-30T06:43:49.068Z,78.47
2022-08-30T06:44:46.225Z,78.47
2022-08-30T06:45:46.220Z,78.38
2022-08-30T06:46:46.273Z,78.78
2022-08-30T06:47:46.258Z,78.98
2022-08-30T06:48:48.282Z,79.58
2022-08-30T06:49:46.221Z,79.68
2022-08-30T06:50:46.217Z,78.98
2022-08-30T06:51:46.215Z,79.48
2022-08-30T06:52:46.216Z,79.28
2022-08-30T06:53:46.222Z,79.44
2022-08-30T06:54:46.216Z,79.14
2022-08-30T06:55:46.219Z,78.84
2022-08-30T06:56:58.021Z,79.04
2022-08-30T06:57:46.213Z,79.64
2022-08-30T06:58:46.209Z,79.14
2022-08-30T06:59:46.210Z,78.74
2022-08-30T07:00:46.209Z,78.34
2022-08-30T07:01:46.256Z,78.54
2022-08-30T07:02:46.290Z,78.44
2022-08-30T07:03:46.209Z,78.44
2022-08-30T07:04:46.208Z,77.94
2022-08-30T07:05:46.209Z,78.10
2022-08-30T07:06:46.206Z,78.50
2022-08-30T07:07:46.202Z,78.80
2022-08-30T07:08:46.202Z,78.74
2022-08-30T07:09:46.205Z,78.50
2022-08-30T07:10:46.203Z,78.20
2022-08-30T07:11:46.205Z,78.10
2022-08-30T07:12:46.203Z,78.00
2022-08-30T07:13:46.203Z,78.50
2022-08-30T07:14:46.198Z,78.30
2022-08-30T07:15:46.265Z,78.20
2022-08-30T07:16:46.199Z,78.10
2022-08-30T07:17:46.204Z,77.96
2022-08-30T07:18:46.198Z,78.06
2022-08-30T07:19:46.198Z,77.66
2022-08-30T07:20:46.201Z,76.96
2022-08-30T07:21:46.197Z,77.56
2022-08-30T07:22:46.196Z,77.26
2022-08-30T07:23:48.341Z,77.36
2022-08-30T07:24:46.195Z,77.42
2022-08-30T07:25:46.195Z,77.16
2022-08-30T07:26:46.195Z,77.62
2022-08-30T07:27:46.193Z,77.32
2022-08-30T07:28:46.191Z,77.12
2022-08-30T07:29:46.196Z,77.62
2022-08-30T07:30:46.190Z,77.52
2022-08-30T07:31:46.197Z,76.92
2022-08-30T07:32:46.190Z,77.02
2022-08-30T07:33:46.191Z,76.42
2022-08-30T07:34:46.189Z,76.08
2022-08-30T07:35:46.191Z,74.48
2022-08-30T07:36:46.187Z,75.08
2022-08-30T07:37:46.192Z,75.88
2022-08-30T07:38:46.191Z,75.98
2022-08-30T07:39:48.031Z,76.48
2022-08-30T07:40:46.237Z,74.68
2022-08-30T07:41:46.191Z,74.88
2022-08-30T07:42:46.187Z,74.88
2022-08-30T07:43:46.192Z,74.34
2022-08-30T07:44:46.189Z,74.27
2022-08-30T07:45:46.190Z,74.84
2022-08-30T07:46:46.254Z,74.64
2022-08-30T07:47:46.186Z,74.84
2022-08-30T07:48:46.188Z,75.14
2022-08-30T07:49:46.190Z,74.84
2022-08-30T07:50:46.321Z,74.34
2022-08-30T07:51:46.204Z,74.04
2022-08-30T07:52:46.187Z,74.44
2022-08-30T07:53:46.185Z,74.04
2022-08-30T07:54:46.185Z,73.30
2022-08-30T07:55:46.186Z,73.70
2022-08-30T07:56:46.192Z,73.50
2022-08-30T07:57:46.190Z,73.70
2022-08-30T07:58:46.184Z,73.70
2022-08-30T07:59:46.187Z,73.70
2022-08-30T08:00:46.184Z,73.07
2022-08-30T08:01:46.198Z,73.16
2022-08-30T08:02:46.251Z,73.07
2022-08-30T08:03:46.189Z,73.97
2022-08-30T08:04:46.183Z,73.16
2022-08-30T08:05:46.183Z,72.36
2022-08-30T08:06:46.183Z,70.96
2022-08-30T08:07:46.186Z,71.86
2022-08-30T08:08:46.182Z,71.83
2022-08-30T08:09:46.185Z,71.23
2022-08-30T08:10:46.180Z,71.43
2022-08-30T08:11:46.182Z,72.43
2022-08-30T08:12:46.189Z,72.33
2022-08-30T08:13:52.653Z,72.33
2022-08-30T08:14:46.181Z,71.93
2022-08-30T08:15:46.224Z,72.33
2022-08-30T08:16:46.182Z,72.60
2022-08-30T08:17:46.183Z,72.30
2022-08-30T08:18:46.184Z,71.00
2022-08-30T08:19:46.184Z,69.59
2022-08-30T08:20:46.188Z,70.19
2022-08-30T08:21:46.189Z,70.50
2022-08-30T08:22:46.185Z,70.19
2022-08-30T08:23:46.185Z,70.56
2022-08-30T08:24:46.186Z,70.50
2022-08-30T08:25:46.191Z,68.99
2022-08-30T08:26:46.194Z,70.09
2022-08-30T08:27:46.193Z,70.50
2022-08-30T08:28:46.186Z,69.59
2022-08-30T08:29:46.191Z,69.29
2022-08-30T08:30:48.273Z,69.49
2022-08-30T08:31:46.301Z,69.59
2022-08-30T08:32:46.190Z,69.29
2022-08-30T08:33:46.193Z,70.89
2022-08-30T08:34:46.403Z,70.69
2022-08-30T08:35:46.198Z,70.50
2022-08-30T08:36:46.191Z,70.59
2022-08-30T08:37:46.199Z,69.39
2022-08-30T08:38:46.193Z,69.59
2022-08-30T08:39:46.197Z,69.29
2022-08-30T08:40:46.300Z,70.36
2022-08-30T08:41:46.208Z,69.86
2022-08-30T08:42:46.197Z,70.26
2022-08-30T08:43:46.194Z,68.66
2022-08-30T08:44:46.277Z,69.06
2022-08-30T08:45:46.198Z,69.46
2022-08-30T08:46:46.225Z,69.86
2022-08-30T08:47:46.200Z,69.96
2022-08-30T08:48:59.506Z,68.96
2022-08-30T08:49:46.201Z,68.26
2022-08-30T08:50:46.199Z,69.06
2022-08-30T08:51:46.200Z,68.76
2022-08-30T08:52:46.203Z,68.26
2022-08-30T08:53:47.201Z,67.36
2022-08-30T08:54:46.200Z,66.75
2022-08-30T08:56:46.200Z,68.05
2022-08-30T08:57:46.206Z,68.36
2022-08-30T08:58:46.203Z,68.05
2022-08-30T08:59:46.204Z,68.05
2022-08-30T09:00:46.204Z,69.36
2022-08-30T09:01:46.290Z,69.26
2022-08-30T09:02:46.203Z,69.26
2022-08-30T09:03:46.202Z,69.56
2022-08-30T09:04:46.295Z,68.66
2022-08-30T09:05:46.205Z,68.96
2022-08-30T09:06:46.204Z,68.46
2022-08-30T09:07:46.205Z,68.26
2022-08-30T09:08:46.211Z,68.96
2022-08-30T09:09:46.205Z,68.36
2022-08-30T09:10:50.755Z,68.16
2022-08-30T09:11:46.207Z,68.05
2022-08-30T09:12:46.210Z,68.96
2022-08-30T09:13:46.207Z,68.96
2022-08-30T09:14:46.707Z,68.46
2022-08-30T09:15:47.419Z,68.46
2022-08-30T09:16:46.211Z,68.36
2022-08-30T09:17:46.210Z,68.05
2022-08-30T09:18:48.188Z,68.66
2022-08-30T09:19:46.214Z,69.56
2022-08-30T09:20:46.211Z,68.96
2022-08-30T09:21:46.211Z,67.25
2022-08-30T09:22:46.788Z,68.36
2022-08-30T09:23:46.210Z,68.55
2022-08-30T09:24:46.212Z,67.02
2022-08-30T09:25:46.212Z,65.72
2022-08-30T09:26:46.212Z,65.72
2022-08-30T09:27:46.214Z,66.42
2022-08-30T09:28:46.217Z,64.12
2022-08-30T09:29:46.213Z,64.00
2022-08-30T09:30:46.253Z,65.29
2022-08-30T09:31:46.214Z,66.49
2022-08-30T09:32:46.215Z,66.79
2022-08-30T09:33:46.215Z,67.89
2022-08-30T09:34:46.220Z,64.99
2022-08-30T09:35:46.215Z,64.49
2022-08-30T09:36:46.218Z,64.39
2022-08-30T09:37:46.215Z,64.69
2022-08-30T09:38:46.216Z,66.69
2022-08-30T09:39:46.216Z,67.49
2022-08-30T09:40:46.263Z,67.40
2022-08-30T09:41:46.218Z,66.99
2022-08-30T09:42:46.223Z,63.12
2022-08-30T09:43:46.218Z,64.72
2022-08-30T09:44:46.227Z,65.99
2022-08-30T09:45:46.246Z,66.49
2022-08-30T09:46:46.220Z,66.63
2022-08-30T09:47:46.220Z,66.69
2022-08-30T09:48:46.222Z,65.09
2022-08-30T09:49:46.221Z,68.19
2022-08-30T09:50:46.273Z,66.22
2022-08-30T09:51:46.229Z,65.29
2022-08-30T09:52:46.233Z,65.79
2022-08-30T09:54:07.372Z,66.09
2022-08-30T09:54:46.227Z,66.29
2022-08-30T09:55:46.236Z,66.19
2022-08-30T09:56:46.227Z,65.99
2022-08-30T09:57:46.228Z,65.49
2022-08-30T09:58:46.225Z,64.66
2022-08-30T09:59:46.223Z,64.43
2022-08-30T10:00:46.224Z,64.63
2022-08-30T10:01:46.234Z,65.43
2022-08-30T10:02:46.228Z,63.80
2022-08-30T10:03:46.226Z,63.53
2022-08-30T10:04:46.233Z,64.70
2022-08-30T10:05:46.230Z,63.53
2022-08-30T10:06:46.260Z,63.30
2022-08-30T10:07:46.274Z,63.50
2022-08-30T10:08:46.238Z,63.40
2022-08-30T10:09:46.237Z,64.50
2022-08-30T10:10:46.230Z,65.60
2022-08-30T10:11:46.228Z,65.30
2022-08-30T10:12:46.236Z,65.70
2022-08-30T10:13:46.232Z,63.00
2022-08-30T10:14:46.234Z,64.80
2022-08-30T10:15:46.233Z,65.30
2022-08-30T10:16:46.249Z,64.90
2022-08-30T10:17:46.235Z,65.70
2022-08-30T10:18:46.238Z,65.30
2022-08-30T10:19:46.235Z,63.70
2022-08-30T10:20:46.241Z,63.60
2022-08-30T10:21:46.233Z,64.47
2022-08-30T10:22:46.236Z,64.60
2022-08-30T10:23:46.236Z,63.57
2022-08-30T10:24:46.239Z,63.57
2022-08-30T10:25:46.238Z,64.97
2022-08-30T10:26:46.238Z,63.20
2022-08-30T10:27:46.237Z,63.17
2022-08-30T10:28:46.806Z,63.47
2022-08-30T10:29:46.239Z,63.37
2022-08-30T10:31:46.239Z,63.80
2022-08-30T10:32:46.239Z,64.70
2022-08-30T10:33:46.246Z,65.40
2022-08-30T10:34:46.242Z,65.30
2022-08-30T10:35:46.242Z,65.30
2022-08-30T10:36:46.248Z,64.20
2022-08-30T10:37:46.250Z,64.60
2022-08-30T10:38:46.246Z,64.60
2022-08-30T10:39:46.246Z,64.90
2022-08-30T10:40:46.308Z,65.30
2022-08-30T10:41:46.252Z,64.30
2022-08-30T10:42:46.248Z,63.80
2022-08-30T10:43:46.246Z,62.81
2022-08-30T10:44:46.254Z,62.90
2022-08-30T10:45:46.247Z,64.90
2022-08-30T10:46:46.250Z,64.70
2022-08-30T10:47:46.248Z,63.30
2022-08-30T10:48:47.491Z,63.20
2022-08-30T10:49:46.251Z,62.70
2022-08-30T10:50:46.259Z,63.27
2022-08-30T10:51:46.253Z,62.87
2022-08-30T10:52:46.254Z,62.97
2022-08-30T10:53:46.252Z,63.07
2022-08-30T10:54:46.257Z,63.67
2022-08-30T10:55:49.958Z,63.04
2022-08-30T10:56:46.257Z,63.64
2022-08-30T10:57:46.254Z,62.94
2022-08-30T10:58:46.257Z,63.84
2022-08-30T10:59:46.259Z,63.44
2022-08-30T11:00:46.299Z,63.51
2022-08-30T11:01:46.870Z,63.44
2022-08-30T11:02:46.257Z,63.44
2022-08-30T11:03:46.255Z,64.51
2022-08-30T11:04:46.272Z,63.74
2022-08-30T11:05:46.262Z,63.24
2022-08-30T11:06:46.258Z,64.31
2022-08-30T11:07:46.258Z,64.34
2022-08-30T11:08:46.260Z,64.54
2022-08-30T11:09:46.264Z,64.44
2022-08-30T11:10:47.839Z,63.14
2022-08-30T11:11:46.262Z,63.44
2022-08-30T11:12:46.296Z,63.41
2022-08-30T11:13:46.267Z,64.84
2022-08-30T11:14:46.268Z,64.54
2022-08-30T11:15:46.265Z,63.34
2022-08-30T11:16:46.271Z,64.74
2022-08-30T11:17:46.265Z,65.23
2022-08-30T11:18:50.938Z,64.94
2022-08-30T11:19:46.267Z,63.77
2022-08-30T11:20:46.267Z,62.57
2022-08-30T11:21:46.266Z,63.74
2022-08-30T11:22:46.267Z,63.54
2022-08-30T11:23:46.267Z,62.97
2022-08-30T11:24:46.268Z,63.07
2022-08-30T11:25:46.269Z,64.77
2022-08-30T11:26:46.269Z,63.67
2022-08-30T11:27:46.271Z,62.77
2022-08-30T11:28:46.272Z,62.97
2022-08-30T11:29:46.272Z,62.87
2022-08-30T11:30:46.273Z,62.97
2022-08-30T11:31:46.782Z,63.17
2022-08-30T11:32:46.278Z,62.67
2022-08-30T11:33:46.404Z,63.17
2022-08-30T11:34:46.280Z,62.37
2022-08-30T11:35:48.597Z,62.57
2022-08-30T11:36:46.399Z,62.87
2022-08-30T11:37:46.279Z,62.54
2022-08-30T11:38:46.277Z,62.04
2022-08-30T11:39:46.278Z,62.04
2022-08-30T11:40:46.281Z,62.64
2022-08-30T11:41:47.958Z,62.94
2022-08-30T11:42:46.289Z,62.94
2022-08-30T11:43:46.285Z,63.54
2022-08-30T11:44:46.289Z,63.14
2022-08-30T11:45:46.318Z,62.54
2022-08-30T11:46:46.286Z,62.21
2022-08-30T11:47:46.287Z,62.21
2022-08-30T11:48:53.586Z,61.32
2022-08-30T11:49:46.407Z,62.51
2022-08-30T11:50:48.354Z,62.41
2022-08-30T11:51:50.877Z,61.02
2022-08-30T11:52:46.294Z,61.09
2022-08-30T11:53:46.292Z,61.58
2022-08-30T11:54:48.816Z,60.89
2022-08-30T11:55:46.293Z,60.99
2022-08-30T11:56:46.295Z,61.58
2022-08-30T11:57:46.303Z,61.19
2022-08-30T11:58:46.298Z,60.89
2022-08-30T11:59:46.296Z,61.09
2022-08-30T12:00:51.328Z,61.39
2022-08-30T12:01:50.726Z,61.39
2022-08-30T12:02:46.470Z,60.69
2022-08-30T12:03:46.441Z,60.89
2022-08-30T12:04:46.302Z,61.19
2022-08-30T12:05:48.063Z,61.16
2022-08-30T12:06:46.305Z,62.26
2022-08-30T12:07:46.323Z,61.09
2022-08-30T12:08:47.247Z,61.19
2022-08-30T12:09:46.301Z,60.79
2022-08-30T12:10:46.304Z,60.76
2022-08-30T12:11:46.308Z,60.96
2022-08-30T12:12:46.305Z,60.26
2022-08-30T12:13:46.302Z,61.36
2022-08-30T12:14:46.304Z,60.46
2022-08-30T12:15:46.304Z,60.76
2022-08-30T12:16:46.341Z,60.46
2022-08-30T12:17:46.309Z,60.06
2022-08-30T12:18:46.310Z,59.64
2022-08-30T12:19:50.190Z,59.06
2022-08-30T12:20:46.314Z,59.56
2022-08-30T12:21:46.310Z,59.96
2022-08-30T12:22:46.311Z,59.47
2022-08-30T12:23:46.319Z,59.36
2022-08-30T12:24:46.313Z,59.36
2022-08-30T12:25:46.313Z,59.27
2022-08-30T12:26:46.312Z,59.86
2022-08-30T12:27:46.312Z,58.84
2022-08-30T12:28:46.318Z,59.17
2022-08-30T12:29:46.316Z,59.66
2022-08-30T12:30:46.505Z,58.84
2022-08-30T12:31:46.353Z,59.44
2022-08-30T12:32:46.318Z,59.53
2022-08-30T12:33:46.317Z,59.04
2022-08-30T12:34:46.322Z,58.24
2022-08-30T12:35:46.320Z,58.64
2022-08-30T12:36:46.319Z,58.54
2022-08-30T12:37:46.320Z,58.41
2022-08-30T12:38:46.322Z,58.31
2022-08-30T12:39:46.324Z,58.91
2022-08-30T12:40:46.381Z,59.01
2022-08-30T12:41:46.325Z,58.41
2022-08-30T12:42:46.408Z,58.61
2022-08-30T12:43:46.324Z,58.64
2022-08-30T12:44:46.350Z,58.61
2022-08-30T12:45:50.603Z,58.61
2022-08-30T12:46:46.332Z,58.51
2022-08-30T12:47:46.329Z,57.82
2022-08-30T12:48:46.328Z,57.49
2022-08-30T12:49:46.337Z,58.41
2022-08-30T12:50:46.332Z,58.11
2022-08-30T12:51:46.334Z,57.71
2022-08-30T12:52:46.333Z,58.39
2022-08-30T12:53:46.333Z,57.79
2022-08-30T12:54:46.331Z,58.18
2022-08-30T12:55:46.333Z,58.39
2022-08-30T12:56:50.316Z,57.69